sensor_id;sensor_type;location;lat;lon;timestamp;temperature;humidity
78619;DHT22;67941;52.506;5.470;2023-05-13T00:00:07;14.50;61.60
78619;DHT22;67941;52.506;5.470;2023-05-13T00:02:36;14.40;61.60
78619;DHT22;67941;52.506;5.470;2023-05-13T00:05:06;14.40;61.70
78619;DHT22;67941;52.506;5.470;2023-05-13T00:07:35;14.40;61.70
78619;DHT22;67941;52.506;5.470;2023-05-13T00:10:05;14.30;61.80
78619;DHT22;67941;52.506;5.470;2023-05-13T00:12:36;14.30;61.80
78619;DHT22;67941;52.506;5.470;2023-05-13T00:15:06;14.30;61.90
78619;DHT22;67941;52.506;5.470;2023-05-13T00:17:35;14.30;61.90
78619;DHT22;67941;52.506;5.470;2023-05-13T00:20:05;14.20;62.00
78619;DHT22;67941;52.506;5.470;2023-05-13T00:22:34;14.20;62.00
78619;DHT22;67941;52.506;5.470;2023-05-13T00:25:04;14.20;62.10
78619;DHT22;67941;52.506;5.470;2023-05-13T00:27:35;14.10;62.10
78619;DHT22;67941;52.506;5.470;2023-05-13T00:30:06;14.10;62.20
78619;DHT22;67941;52.506;5.470;2023-05-13T00:32:35;14.10;62.20
78619;DHT22;67941;52.506;5.470;2023-05-13T00:35:04;14.10;62.20
78619;DHT22;67941;52.506;5.470;2023-05-13T00:37:33;14.00;62.30
78619;DHT22;67941;52.506;5.470;2023-05-13T00:40:03;14.00;62.40
78619;DHT22;67941;52.506;5.470;2023-05-13T00:42:32;14.00;62.40
78619;DHT22;67941;52.506;5.470;2023-05-13T00:45:05;14.00;62.50
78619;DHT22;67941;52.506;5.470;2023-05-13T00:47:34;13.90;62.60
78619;DHT22;67941;52.506;5.470;2023-05-13T00:50:03;13.90;62.60
78619;DHT22;67941;52.506;5.470;2023-05-13T00:52:33;13.90;62.70
78619;DHT22;67941;52.506;5.470;2023-05-13T00:55:02;13.90;62.80
78619;DHT22;67941;52.506;5.470;2023-05-13T00:57:32;13.90;62.80
78619;DHT22;67941;52.506;5.470;2023-05-13T01:00:05;13.80;62.80
78619;DHT22;67941;52.506;5.470;2023-05-13T01:02:47;13.70;63.00
78619;DHT22;67941;52.506;5.470;2023-05-13T01:05:24;13.70;63.00
78619;DHT22;67941;52.506;5.470;2023-05-13T01:08:00;13.70;63.20
78619;DHT22;67941;52.506;5.470;2023-05-13T01:10:38;13.60;63.30
78619;DHT22;67941;52.506;5.470;2023-05-13T01:13:12;13.60;63.40
78619;DHT22;67941;52.506;5.470;2023-05-13T01:15:48;13.50;63.40
78619;DHT22;67941;52.506;5.470;2023-05-13T01:18:19;13.50;63.60
78619;DHT22;67941;52.506;5.470;2023-05-13T01:20:52;13.50;63.60
78619;DHT22;67941;52.506;5.470;2023-05-13T01:23:24;13.40;63.60
78619;DHT22;67941;52.506;5.470;2023-05-13T01:25:53;13.30;63.70
78619;DHT22;67941;52.506;5.470;2023-05-13T01:28:23;13.30;63.80
78619;DHT22;67941;52.506;5.470;2023-05-13T01:30:53;13.30;63.90
78619;DHT22;67941;52.506;5.470;2023-05-13T01:33:24;13.30;63.90
78619;DHT22;67941;52.506;5.470;2023-05-13T01:35:54;13.30;64.00
78619;DHT22;67941;52.506;5.470;2023-05-13T01:38:27;13.30;64.10
78619;DHT22;67941;52.506;5.470;2023-05-13T01:40:58;13.30;64.20
78619;DHT22;67941;52.506;5.470;2023-05-13T01:43:29;13.20;64.10
78619;DHT22;67941;52.506;5.470;2023-05-13T01:45:59;13.20;64.20
78619;DHT22;67941;52.506;5.470;2023-05-13T01:48:28;13.10;64.30
78619;DHT22;67941;52.506;5.470;2023-05-13T01:50:57;13.10;64.30
78619;DHT22;67941;52.506;5.470;2023-05-13T01:53:28;13.10;64.40
78619;DHT22;67941;52.506;5.470;2023-05-13T01:55:57;13.10;64.50
78619;DHT22;67941;52.506;5.470;2023-05-13T01:58:26;13.10;64.50
78619;DHT22;67941;52.506;5.470;2023-05-13T02:00:55;13.10;64.60
78619;DHT22;67941;52.506;5.470;2023-05-13T02:03:24;13.00;64.70
78619;DHT22;67941;52.506;5.470;2023-05-13T02:05:53;13.00;64.70
78619;DHT22;67941;52.506;5.470;2023-05-13T02:08:22;13.00;64.80
78619;DHT22;67941;52.506;5.470;2023-05-13T02:10:59;12.90;64.80
78619;DHT22;67941;52.506;5.470;2023-05-13T02:13:28;12.90;64.90
78619;DHT22;67941;52.506;5.470;2023-05-13T02:15:57;12.90;64.90
78619;DHT22;67941;52.506;5.470;2023-05-13T02:18:26;12.90;65.00
78619;DHT22;67941;52.506;5.470;2023-05-13T02:20:55;12.90;65.00
78619;DHT22;67941;52.506;5.470;2023-05-13T02:23:24;12.80;65.00
78619;DHT22;67941;52.506;5.470;2023-05-13T02:25:54;12.80;65.10
78619;DHT22;67941;52.506;5.470;2023-05-13T02:28:29;12.80;65.20
78619;DHT22;67941;52.506;5.470;2023-05-13T02:30:58;12.80;65.30
78619;DHT22;67941;52.506;5.470;2023-05-13T02:33:26;12.70;65.30
78619;DHT22;67941;52.506;5.470;2023-05-13T02:35:55;12.70;65.40
78619;DHT22;67941;52.506;5.470;2023-05-13T02:38:24;12.70;65.40
78619;DHT22;67941;52.506;5.470;2023-05-13T02:40:53;12.60;65.50
78619;DHT22;67941;52.506;5.470;2023-05-13T02:43:22;12.60;65.60
78619;DHT22;67941;52.506;5.470;2023-05-13T02:45:59;12.50;65.60
78619;DHT22;67941;52.506;5.470;2023-05-13T02:48:29;12.50;65.70
78619;DHT22;67941;52.506;5.470;2023-05-13T02:50:57;12.50;65.70
78619;DHT22;67941;52.506;5.470;2023-05-13T02:53:26;12.50;65.80
78619;DHT22;67941;52.506;5.470;2023-05-13T02:56:00;12.50;65.80
78619;DHT22;67941;52.506;5.470;2023-05-13T02:58:29;12.50;65.90
78619;DHT22;67941;52.506;5.470;2023-05-13T03:01:01;12.40;66.00
78619;DHT22;67941;52.506;5.470;2023-05-13T03:03:30;12.40;66.10
78619;DHT22;67941;52.506;5.470;2023-05-13T03:05:58;12.30;66.10
78619;DHT22;67941;52.506;5.470;2023-05-13T03:08:27;12.30;66.20
78619;DHT22;67941;52.506;5.470;2023-05-13T03:10:56;12.30;66.20
78619;DHT22;67941;52.506;5.470;2023-05-13T03:13:25;12.20;66.30
78619;DHT22;67941;52.506;5.470;2023-05-13T03:16:15;12.20;66.40
78619;DHT22;67941;52.506;5.470;2023-05-13T03:18:45;12.20;66.50
78619;DHT22;67941;52.506;5.470;2023-05-13T03:21:15;12.10;66.50
78619;DHT22;67941;52.506;5.470;2023-05-13T03:23:44;12.10;66.60
78619;DHT22;67941;52.506;5.470;2023-05-13T03:26:13;12.10;66.70
78619;DHT22;67941;52.506;5.470;2023-05-13T03:28:41;12.10;66.80
78619;DHT22;67941;52.506;5.470;2023-05-13T03:31:11;12.10;66.90
78619;DHT22;67941;52.506;5.470;2023-05-13T03:33:42;12.00;66.90
78619;DHT22;67941;52.506;5.470;2023-05-13T03:36:12;12.00;67.00
78619;DHT22;67941;52.506;5.470;2023-05-13T03:38:41;12.00;67.00
78619;DHT22;67941;52.506;5.470;2023-05-13T03:41:10;12.00;67.00
78619;DHT22;67941;52.506;5.470;2023-05-13T03:43:42;12.00;67.20
78619;DHT22;67941;52.506;5.470;2023-05-13T03:46:11;11.90;67.20
78619;DHT22;67941;52.506;5.470;2023-05-13T03:48:44;11.90;67.30
78619;DHT22;67941;52.506;5.470;2023-05-13T03:51:14;11.90;67.40
78619;DHT22;67941;52.506;5.470;2023-05-13T03:53:44;11.90;67.40
78619;DHT22;67941;52.506;5.470;2023-05-13T03:56:13;11.90;67.50
78619;DHT22;67941;52.506;5.470;2023-05-13T03:58:44;11.90;67.50
78619;DHT22;67941;52.506;5.470;2023-05-13T04:01:13;11.90;67.60
78619;DHT22;67941;52.506;5.470;2023-05-13T04:03:44;11.90;67.70
78619;DHT22;67941;52.506;5.470;2023-05-13T04:06:14;11.90;67.80
78619;DHT22;67941;52.506;5.470;2023-05-13T04:08:46;11.90;67.80
78619;DHT22;67941;52.506;5.470;2023-05-13T04:11:15;11.90;67.90
78619;DHT22;67941;52.506;5.470;2023-05-13T04:13:44;11.90;68.00
78619;DHT22;67941;52.506;5.470;2023-05-13T04:16:13;11.90;68.00
78619;DHT22;67941;52.506;5.470;2023-05-13T04:18:44;11.90;68.10
78619;DHT22;67941;52.506;5.470;2023-05-13T04:21:13;11.90;68.10
78619;DHT22;67941;52.506;5.470;2023-05-13T04:23:42;11.90;68.10
78619;DHT22;67941;52.506;5.470;2023-05-13T04:26:11;12.00;68.20
78619;DHT22;67941;52.506;5.470;2023-05-13T04:28:40;11.90;68.20
78619;DHT22;67941;52.506;5.470;2023-05-13T04:31:09;12.00;68.30
78619;DHT22;67941;52.506;5.470;2023-05-13T04:33:38;12.00;68.40
78619;DHT22;67941;52.506;5.470;2023-05-13T04:36:10;12.10;68.40
78619;DHT22;67941;52.506;5.470;2023-05-13T04:38:39;12.10;68.50
78619;DHT22;67941;52.506;5.470;2023-05-13T04:41:07;12.20;68.50
78619;DHT22;67941;52.506;5.470;2023-05-13T04:43:41;12.20;68.50
78619;DHT22;67941;52.506;5.470;2023-05-13T04:46:10;12.30;68.60
78619;DHT22;67941;52.506;5.470;2023-05-13T04:48:39;12.40;68.60
78619;DHT22;67941;52.506;5.470;2023-05-13T04:51:13;12.50;68.60
78619;DHT22;67941;52.506;5.470;2023-05-13T04:53:42;12.50;68.60
78619;DHT22;67941;52.506;5.470;2023-05-13T04:56:11;12.50;68.70
78619;DHT22;67941;52.506;5.470;2023-05-13T04:58:41;12.60;68.70
78619;DHT22;67941;52.506;5.470;2023-05-13T05:01:12;12.70;68.70
78619;DHT22;67941;52.506;5.470;2023-05-13T05:03:41;12.90;68.70
78619;DHT22;67941;52.506;5.470;2023-05-13T05:06:13;13.00;68.70
78619;DHT22;67941;52.506;5.470;2023-05-13T05:08:42;13.10;68.60
78619;DHT22;67941;52.506;5.470;2023-05-13T05:11:11;13.20;68.60
78619;DHT22;67941;52.506;5.470;2023-05-13T05:13:40;13.30;68.50
78619;DHT22;67941;52.506;5.470;2023-05-13T05:16:28;13.50;68.40
78619;DHT22;67941;52.506;5.470;2023-05-13T05:18:58;13.60;68.30
78619;DHT22;67941;52.506;5.470;2023-05-13T05:21:29;13.90;68.30
78619;DHT22;67941;52.506;5.470;2023-05-13T05:23:58;14.10;68.20
78619;DHT22;67941;52.506;5.470;2023-05-13T05:26:27;14.30;67.90
78619;DHT22;67941;52.506;5.470;2023-05-13T05:28:56;14.60;67.70
78619;DHT22;67941;52.506;5.470;2023-05-13T05:31:25;14.90;67.50
78619;DHT22;67941;52.506;5.470;2023-05-13T05:33:58;15.00;67.30
78619;DHT22;67941;52.506;5.470;2023-05-13T05:36:29;15.20;67.20
78619;DHT22;67941;52.506;5.470;2023-05-13T05:38:58;15.30;67.20
78619;DHT22;67941;52.506;5.470;2023-05-13T05:41:32;15.30;67.30
78619;DHT22;67941;52.506;5.470;2023-05-13T05:44:01;15.20;67.40
78619;DHT22;67941;52.506;5.470;2023-05-13T05:46:31;15.10;67.70
78619;DHT22;67941;52.506;5.470;2023-05-13T05:49:00;15.00;67.80
78619;DHT22;67941;52.506;5.470;2023-05-13T05:51:35;14.90;68.00
78619;DHT22;67941;52.506;5.470;2023-05-13T05:54:06;14.70;68.10
78619;DHT22;67941;52.506;5.470;2023-05-13T05:56:38;14.60;68.40
78619;DHT22;67941;52.506;5.470;2023-05-13T05:59:06;14.40;68.50
78619;DHT22;67941;52.506;5.470;2023-05-13T06:01:36;14.30;68.50
78619;DHT22;67941;52.506;5.470;2023-05-13T06:04:04;14.20;68.40
78619;DHT22;67941;52.506;5.470;2023-05-13T06:06:36;14.00;68.40
78619;DHT22;67941;52.506;5.470;2023-05-13T06:09:05;14.00;68.40
78619;DHT22;67941;52.506;5.470;2023-05-13T06:11:34;13.90;68.40
78619;DHT22;67941;52.506;5.470;2023-05-13T06:14:03;13.90;68.40
78619;DHT22;67941;52.506;5.470;2023-05-13T06:16:32;14.00;68.40
78619;DHT22;67941;52.506;5.470;2023-05-13T06:19:04;14.10;68.40
78619;DHT22;67941;52.506;5.470;2023-05-13T06:21:32;14.10;68.20
78619;DHT22;67941;52.506;5.470;2023-05-13T06:24:05;14.20;68.00
78619;DHT22;67941;52.506;5.470;2023-05-13T06:26:34;14.10;68.00
78619;DHT22;67941;52.506;5.470;2023-05-13T06:29:02;14.10;68.00
78619;DHT22;67941;52.506;5.470;2023-05-13T06:31:33;14.10;67.90
78619;DHT22;67941;52.506;5.470;2023-05-13T06:34:04;14.10;67.90
78619;DHT22;67941;52.506;5.470;2023-05-13T06:36:35;14.10;67.90
78619;DHT22;67941;52.506;5.470;2023-05-13T06:39:09;14.10;67.90
78619;DHT22;67941;52.506;5.470;2023-05-13T06:41:39;14.10;67.80
78619;DHT22;67941;52.506;5.470;2023-05-13T06:44:12;14.10;67.80
78619;DHT22;67941;52.506;5.470;2023-05-13T06:46:47;14.10;67.80
78619;DHT22;67941;52.506;5.470;2023-05-13T06:49:16;14.10;67.70
78619;DHT22;67941;52.506;5.470;2023-05-13T06:51:46;14.20;67.70
78619;DHT22;67941;52.506;5.470;2023-05-13T06:54:18;14.20;67.80
78619;DHT22;67941;52.506;5.470;2023-05-13T06:56:47;14.30;67.70
78619;DHT22;67941;52.506;5.470;2023-05-13T06:59:15;14.30;67.70
78619;DHT22;67941;52.506;5.470;2023-05-13T07:01:45;14.40;67.70
78619;DHT22;67941;52.506;5.470;2023-05-13T07:04:13;14.40;67.60
78619;DHT22;67941;52.506;5.470;2023-05-13T07:06:42;14.50;67.60
78619;DHT22;67941;52.506;5.470;2023-05-13T07:09:14;14.50;67.50
78619;DHT22;67941;52.506;5.470;2023-05-13T07:11:46;14.60;67.50
78619;DHT22;67941;52.506;5.470;2023-05-13T07:14:14;14.70;67.60
78619;DHT22;67941;52.506;5.470;2023-05-13T07:16:45;14.70;67.60
78619;DHT22;67941;52.506;5.470;2023-05-13T07:19:14;14.80;67.50
78619;DHT22;67941;52.506;5.470;2023-05-13T07:21:43;14.80;67.50
78619;DHT22;67941;52.506;5.470;2023-05-13T07:24:12;14.90;67.40
78619;DHT22;67941;52.506;5.470;2023-05-13T07:26:47;14.90;67.40
78619;DHT22;67941;52.506;5.470;2023-05-13T07:29:15;14.90;67.50
78619;DHT22;67941;52.506;5.470;2023-05-13T07:31:47;14.90;67.50
78619;DHT22;67941;52.506;5.470;2023-05-13T07:34:17;15.00;67.50
78619;DHT22;67941;52.506;5.470;2023-05-13T07:36:46;15.00;67.50
78619;DHT22;67941;52.506;5.470;2023-05-13T07:39:14;15.00;67.50
78619;DHT22;67941;52.506;5.470;2023-05-13T07:41:44;15.00;67.60
78619;DHT22;67941;52.506;5.470;2023-05-13T07:44:15;15.00;67.50
78619;DHT22;67941;52.506;5.470;2023-05-13T07:46:44;15.10;67.50
78619;DHT22;67941;52.506;5.470;2023-05-13T07:49:13;15.20;67.50
78619;DHT22;67941;52.506;5.470;2023-05-13T07:51:42;15.20;67.50
78619;DHT22;67941;52.506;5.470;2023-05-13T07:54:11;15.20;67.50
78619;DHT22;67941;52.506;5.470;2023-05-13T07:56:43;15.30;67.50
78619;DHT22;67941;52.506;5.470;2023-05-13T07:59:16;15.40;67.50
78619;DHT22;67941;52.506;5.470;2023-05-13T08:01:45;15.50;67.40
78619;DHT22;67941;52.506;5.470;2023-05-13T08:04:14;15.50;67.40
78619;DHT22;67941;52.506;5.470;2023-05-13T08:06:44;15.60;67.40
78619;DHT22;67941;52.506;5.470;2023-05-13T08:09:12;15.60;67.30
78619;DHT22;67941;52.506;5.470;2023-05-13T08:11:41;15.60;67.30
78619;DHT22;67941;52.506;5.470;2023-05-13T08:14:16;15.70;67.30
78619;DHT22;67941;52.506;5.470;2023-05-13T08:16:44;15.80;67.30
78619;DHT22;67941;52.506;5.470;2023-05-13T08:19:14;15.80;67.30
78619;DHT22;67941;52.506;5.470;2023-05-13T08:21:42;16.00;67.40
78619;DHT22;67941;52.506;5.470;2023-05-13T08:24:11;16.00;67.30
78619;DHT22;67941;52.506;5.470;2023-05-13T08:26:40;16.10;67.40
78619;DHT22;67941;52.506;5.470;2023-05-13T08:29:15;16.20;67.30
78619;DHT22;67941;52.506;5.470;2023-05-13T08:31:46;16.20;67.30
78619;DHT22;67941;52.506;5.470;2023-05-13T08:34:15;16.30;67.20
78619;DHT22;67941;52.506;5.470;2023-05-13T08:36:44;16.40;67.20
78619;DHT22;67941;52.506;5.470;2023-05-13T08:39:13;16.40;67.20
78619;DHT22;67941;52.506;5.470;2023-05-13T08:41:43;16.40;67.20
78619;DHT22;67941;52.506;5.470;2023-05-13T08:44:15;16.50;67.20
78619;DHT22;67941;52.506;5.470;2023-05-13T08:47:00;16.50;67.10
78619;DHT22;67941;52.506;5.470;2023-05-13T08:49:29;16.60;67.10
78619;DHT22;67941;52.506;5.470;2023-05-13T08:51:58;16.60;67.00
78619;DHT22;67941;52.506;5.470;2023-05-13T08:54:30;16.60;67.00
78619;DHT22;67941;52.506;5.470;2023-05-13T08:57:02;16.60;67.00
78619;DHT22;67941;52.506;5.470;2023-05-13T08:59:34;16.60;67.10
78619;DHT22;67941;52.506;5.470;2023-05-13T09:02:03;16.70;67.00
78619;DHT22;67941;52.506;5.470;2023-05-13T09:04:33;16.70;66.90
78619;DHT22;67941;52.506;5.470;2023-05-13T09:07:04;16.70;66.90
78619;DHT22;67941;52.506;5.470;2023-05-13T09:09:35;16.80;66.90
78619;DHT22;67941;52.506;5.470;2023-05-13T09:12:05;16.90;66.90
78619;DHT22;67941;52.506;5.470;2023-05-13T09:14:37;16.90;66.90
78619;DHT22;67941;52.506;5.470;2023-05-13T09:17:08;16.90;66.90
78619;DHT22;67941;52.506;5.470;2023-05-13T09:19:41;17.00;66.80
78619;DHT22;67941;52.506;5.470;2023-05-13T09:22:16;17.00;66.80
78619;DHT22;67941;52.506;5.470;2023-05-13T09:24:52;17.10;66.80
78619;DHT22;67941;52.506;5.470;2023-05-13T09:27:35;17.20;66.70
78619;DHT22;67941;52.506;5.470;2023-05-13T09:30:09;17.20;66.60
78619;DHT22;67941;52.506;5.470;2023-05-13T09:32:39;17.20;66.60
78619;DHT22;67941;52.506;5.470;2023-05-13T09:35:15;17.30;66.50
78619;DHT22;67941;52.506;5.470;2023-05-13T09:37:47;17.40;66.40
78619;DHT22;67941;52.506;5.470;2023-05-13T09:40:16;17.40;66.40
78619;DHT22;67941;52.506;5.470;2023-05-13T09:42:46;17.50;66.30
78619;DHT22;67941;52.506;5.470;2023-05-13T09:45:17;17.50;66.20
78619;DHT22;67941;52.506;5.470;2023-05-13T09:47:50;17.50;66.20
78619;DHT22;67941;52.506;5.470;2023-05-13T09:50:28;17.60;66.20
78619;DHT22;67941;52.506;5.470;2023-05-13T09:52:57;17.60;66.20
78619;DHT22;67941;52.506;5.470;2023-05-13T09:55:28;17.70;66.20
78619;DHT22;67941;52.506;5.470;2023-05-13T09:57:57;17.80;66.20
78619;DHT22;67941;52.506;5.470;2023-05-13T10:00:29;17.80;66.20
78619;DHT22;67941;52.506;5.470;2023-05-13T10:02:58;17.80;66.10
78619;DHT22;67941;52.506;5.470;2023-05-13T10:05:27;17.90;66.10
78619;DHT22;67941;52.506;5.470;2023-05-13T10:07:57;18.00;66.00
78619;DHT22;67941;52.506;5.470;2023-05-13T10:10:31;18.00;65.90
78619;DHT22;67941;52.506;5.470;2023-05-13T10:13:04;18.00;65.90
78619;DHT22;67941;52.506;5.470;2023-05-13T10:15:45;18.00;65.80
78619;DHT22;67941;52.506;5.470;2023-05-13T10:18:19;18.00;65.90
78619;DHT22;67941;52.506;5.470;2023-05-13T10:20:48;18.10;65.90
78619;DHT22;67941;52.506;5.470;2023-05-13T10:23:21;18.10;65.80
78619;DHT22;67941;52.506;5.470;2023-05-13T10:25:50;18.20;65.80
78619;DHT22;67941;52.506;5.470;2023-05-13T10:28:24;18.30;65.70
78619;DHT22;67941;52.506;5.470;2023-05-13T10:30:55;18.30;65.50
78619;DHT22;67941;52.506;5.470;2023-05-13T10:33:25;18.30;65.50
78619;DHT22;67941;52.506;5.470;2023-05-13T10:36:03;18.40;65.50
78619;DHT22;67941;52.506;5.470;2023-05-13T10:38:45;18.40;65.40
78619;DHT22;67941;52.506;5.470;2023-05-13T10:41:34;18.50;65.40
78619;DHT22;67941;52.506;5.470;2023-05-13T10:44:06;18.60;65.40
78619;DHT22;67941;52.506;5.470;2023-05-13T10:46:38;18.70;65.40
78619;DHT22;67941;52.506;5.470;2023-05-13T10:49:13;18.70;65.30
78619;DHT22;67941;52.506;5.470;2023-05-13T10:51:45;18.80;65.20
78619;DHT22;67941;52.506;5.470;2023-05-13T10:54:18;18.90;65.10
78619;DHT22;67941;52.506;5.470;2023-05-13T10:56:55;18.90;65.00
78619;DHT22;67941;52.506;5.470;2023-05-13T10:59:27;18.90;64.80
78619;DHT22;67941;52.506;5.470;2023-05-13T11:02:00;19.00;64.80
78619;DHT22;67941;52.506;5.470;2023-05-13T11:04:31;19.00;64.70
78619;DHT22;67941;52.506;5.470;2023-05-13T11:07:13;19.10;64.70
78619;DHT22;67941;52.506;5.470;2023-05-13T11:09:48;19.10;64.60
78619;DHT22;67941;52.506;5.470;2023-05-13T11:12:18;19.20;64.50
78619;DHT22;67941;52.506;5.470;2023-05-13T11:14:49;19.20;64.40
78619;DHT22;67941;52.506;5.470;2023-05-13T11:17:25;19.30;64.30
78619;DHT22;67941;52.506;5.470;2023-05-13T11:19:56;19.30;64.20
78619;DHT22;67941;52.506;5.470;2023-05-13T11:22:25;19.40;64.00
78619;DHT22;67941;52.506;5.470;2023-05-13T11:25:06;19.40;64.00
78619;DHT22;67941;52.506;5.470;2023-05-13T11:27:40;19.50;63.90
78619;DHT22;67941;52.506;5.470;2023-05-13T11:30:21;19.50;63.70
78619;DHT22;67941;52.506;5.470;2023-05-13T11:32:57;19.50;63.50
78619;DHT22;67941;52.506;5.470;2023-05-13T11:35:28;19.50;63.50
78619;DHT22;67941;52.506;5.470;2023-05-13T11:37:59;19.50;63.50
78619;DHT22;67941;52.506;5.470;2023-05-13T11:40:29;19.50;63.50
78619;DHT22;67941;52.506;5.470;2023-05-13T11:42:59;19.50;63.60
78619;DHT22;67941;52.506;5.470;2023-05-13T11:45:30;19.70;63.50
78619;DHT22;67941;52.506;5.470;2023-05-13T11:48:17;19.70;63.50
78619;DHT22;67941;52.506;5.470;2023-05-13T11:50:51;19.90;63.30
78619;DHT22;67941;52.506;5.470;2023-05-13T11:53:24;20.00;63.30
78619;DHT22;67941;52.506;5.470;2023-05-13T11:55:53;20.00;63.20
78619;DHT22;67941;52.506;5.470;2023-05-13T11:58:24;20.00;63.10
78619;DHT22;67941;52.506;5.470;2023-05-13T12:00:53;20.00;63.20
78619;DHT22;67941;52.506;5.470;2023-05-13T12:03:28;20.00;63.10
78619;DHT22;67941;52.506;5.470;2023-05-13T12:06:00;20.10;63.00
78619;DHT22;67941;52.506;5.470;2023-05-13T12:08:33;20.20;62.90
78619;DHT22;67941;52.506;5.470;2023-05-13T12:11:02;20.20;62.90
78619;DHT22;67941;52.506;5.470;2023-05-13T12:13:31;20.30;62.80
78619;DHT22;67941;52.506;5.470;2023-05-13T12:16:00;20.30;62.70
78619;DHT22;67941;52.506;5.470;2023-05-13T12:18:32;20.30;62.50
78619;DHT22;67941;52.506;5.470;2023-05-13T12:21:12;20.30;62.40
78619;DHT22;67941;52.506;5.470;2023-05-13T12:23:44;20.30;62.50
78619;DHT22;67941;52.506;5.470;2023-05-13T12:26:13;20.30;62.60
78619;DHT22;67941;52.506;5.470;2023-05-13T12:28:45;20.20;62.50
78619;DHT22;67941;52.506;5.470;2023-05-13T12:31:15;20.30;62.50
78619;DHT22;67941;52.506;5.470;2023-05-13T12:33:50;20.30;62.60
78619;DHT22;67941;52.506;5.470;2023-05-13T12:36:20;20.30;62.50
78619;DHT22;67941;52.506;5.470;2023-05-13T12:38:55;20.40;62.60
78619;DHT22;67941;52.506;5.470;2023-05-13T12:41:25;20.50;62.50
78619;DHT22;67941;52.506;5.470;2023-05-13T12:43:56;20.50;62.50
78619;DHT22;67941;52.506;5.470;2023-05-13T12:46:26;20.50;62.50
78619;DHT22;67941;52.506;5.470;2023-05-13T12:48:58;20.50;62.50
78619;DHT22;67941;52.506;5.470;2023-05-13T12:51:29;20.50;62.40
78619;DHT22;67941;52.506;5.470;2023-05-13T12:54:01;20.60;62.30
78619;DHT22;67941;52.506;5.470;2023-05-13T12:56:32;20.70;62.20
78619;DHT22;67941;52.506;5.470;2023-05-13T12:59:01;20.70;62.10
78619;DHT22;67941;52.506;5.470;2023-05-13T13:01:30;20.70;62.20
78619;DHT22;67941;52.506;5.470;2023-05-13T13:04:02;20.70;62.10
78619;DHT22;67941;52.506;5.470;2023-05-13T13:06:31;20.80;62.10
78619;DHT22;67941;52.506;5.470;2023-05-13T13:09:00;20.80;62.10
78619;DHT22;67941;52.506;5.470;2023-05-13T13:11:30;20.80;62.00
78619;DHT22;67941;52.506;5.470;2023-05-13T13:13:59;20.80;61.90
78619;DHT22;67941;52.506;5.470;2023-05-13T13:16:27;20.80;61.90
78619;DHT22;67941;52.506;5.470;2023-05-13T13:18:56;20.80;61.90
78619;DHT22;67941;52.506;5.470;2023-05-13T13:21:28;20.80;62.00
78619;DHT22;67941;52.506;5.470;2023-05-13T13:23:59;20.90;61.90
78619;DHT22;67941;52.506;5.470;2023-05-13T13:26:28;20.90;61.90
78619;DHT22;67941;52.506;5.470;2023-05-13T13:28:57;21.00;61.70
78619;DHT22;67941;52.506;5.470;2023-05-13T13:31:28;21.00;61.70
78619;DHT22;67941;52.506;5.470;2023-05-13T13:34:00;21.00;61.60
78619;DHT22;67941;52.506;5.470;2023-05-13T13:36:33;21.10;61.50
78619;DHT22;67941;52.506;5.470;2023-05-13T13:39:02;21.10;61.50
78619;DHT22;67941;52.506;5.470;2023-05-13T13:41:31;21.10;61.30
78619;DHT22;67941;52.506;5.470;2023-05-13T13:44:00;21.10;61.20
78619;DHT22;67941;52.506;5.470;2023-05-13T13:46:31;21.10;61.10
78619;DHT22;67941;52.506;5.470;2023-05-13T13:49:00;21.30;61.20
78619;DHT22;67941;52.506;5.470;2023-05-13T13:51:40;21.30;61.00
78619;DHT22;67941;52.506;5.470;2023-05-13T13:54:09;21.30;60.90
78619;DHT22;67941;52.506;5.470;2023-05-13T13:56:38;21.30;60.90
78619;DHT22;67941;52.506;5.470;2023-05-13T13:59:07;21.30;60.90
78619;DHT22;67941;52.506;5.470;2023-05-13T14:01:35;21.40;60.90
78619;DHT22;67941;52.506;5.470;2023-05-13T14:04:12;21.50;60.90
78619;DHT22;67941;52.506;5.470;2023-05-13T14:06:44;21.50;60.90
78619;DHT22;67941;52.506;5.470;2023-05-13T14:09:12;21.50;61.00
78619;DHT22;67941;52.506;5.470;2023-05-13T14:11:44;21.40;61.10
78619;DHT22;67941;52.506;5.470;2023-05-13T14:14:16;21.40;61.20
78619;DHT22;67941;52.506;5.470;2023-05-13T14:16:45;21.40;61.20
78619;DHT22;67941;52.506;5.470;2023-05-13T14:19:13;21.40;61.10
78619;DHT22;67941;52.506;5.470;2023-05-13T14:21:46;21.40;61.10
78619;DHT22;67941;52.506;5.470;2023-05-13T14:24:18;21.50;61.00
78619;DHT22;67941;52.506;5.470;2023-05-13T14:26:46;21.50;60.90
78619;DHT22;67941;52.506;5.470;2023-05-13T14:29:15;21.50;60.90
78619;DHT22;67941;52.506;5.470;2023-05-13T14:31:44;21.50;60.80
78619;DHT22;67941;52.506;5.470;2023-05-13T14:34:16;21.50;60.80
78619;DHT22;67941;52.506;5.470;2023-05-13T14:36:47;21.50;60.70
78619;DHT22;67941;52.506;5.470;2023-05-13T14:39:16;21.40;60.50
78619;DHT22;67941;52.506;5.470;2023-05-13T14:41:45;21.40;60.50
78619;DHT22;67941;52.506;5.470;2023-05-13T14:44:16;21.30;60.50
78619;DHT22;67941;52.506;5.470;2023-05-13T14:46:45;21.30;60.50
78619;DHT22;67941;52.506;5.470;2023-05-13T14:49:17;21.40;60.50
78619;DHT22;67941;52.506;5.470;2023-05-13T14:51:50;21.40;60.50
78619;DHT22;67941;52.506;5.470;2023-05-13T14:54:19;21.40;60.40
78619;DHT22;67941;52.506;5.470;2023-05-13T14:56:49;21.50;60.20
78619;DHT22;67941;52.506;5.470;2023-05-13T14:59:18;21.50;60.00
78619;DHT22;67941;52.506;5.470;2023-05-13T15:01:47;21.40;59.90
78619;DHT22;67941;52.506;5.470;2023-05-13T15:04:19;21.40;59.90
78619;DHT22;67941;52.506;5.470;2023-05-13T15:06:51;21.40;60.00
78619;DHT22;67941;52.506;5.470;2023-05-13T15:09:20;21.50;60.00
78619;DHT22;67941;52.506;5.470;2023-05-13T15:11:49;21.50;60.10
78619;DHT22;67941;52.506;5.470;2023-05-13T15:14:17;21.50;60.20
78619;DHT22;67941;52.506;5.470;2023-05-13T15:16:46;21.50;60.30
78619;DHT22;67941;52.506;5.470;2023-05-13T15:19:17;21.40;60.40
78619;DHT22;67941;52.506;5.470;2023-05-13T15:21:46;21.40;60.50
78619;DHT22;67941;52.506;5.470;2023-05-13T15:24:37;21.40;60.60
78619;DHT22;67941;52.506;5.470;2023-05-13T15:27:06;21.30;60.70
78619;DHT22;67941;52.506;5.470;2023-05-13T15:29:35;21.10;60.70
78619;DHT22;67941;52.506;5.470;2023-05-13T15:32:11;21.10;60.80
78619;DHT22;67941;52.506;5.470;2023-05-13T15:34:40;21.10;61.00
78619;DHT22;67941;52.506;5.470;2023-05-13T15:37:09;21.10;61.10
78619;DHT22;67941;52.506;5.470;2023-05-13T15:39:40;21.10;61.00
78619;DHT22;67941;52.506;5.470;2023-05-13T15:42:12;21.10;60.90
78619;DHT22;67941;52.506;5.470;2023-05-13T15:44:43;21.10;60.80
78619;DHT22;67941;52.506;5.470;2023-05-13T15:47:13;21.10;60.80
78619;DHT22;67941;52.506;5.470;2023-05-13T15:49:44;21.10;60.70
78619;DHT22;67941;52.506;5.470;2023-05-13T15:52:14;21.10;60.50